sensor_id;sensor_type;location;lat;lon;timestamp;P1;durP1;ratioP1;P2;durP2;ratioP2
77287;SDS011;66345;42.694;23.346;2023-04-15T00:01:03;11.00;;;5.00;;
77287;SDS011;66345;42.694;23.346;2023-04-15T00:03:29;11.07;;;4.78;;
77287;SDS011;66345;42.694;23.346;2023-04-15T00:05:56;11.13;;;4.68;;
77287;SDS011;66345;42.694;23.346;2023-04-15T00:08:22;9.57;;;4.20;;
77287;SDS011;66345;42.694;23.346;2023-04-15T00:10:49;11.43;;;4.40;;
77287;SDS011;66345;42.694;23.346;2023-04-15T00:13:15;10.77;;;4.85;;
77287;SDS011;66345;42.694;23.346;2023-04-15T00:15:40;11.45;;;5.05;;
77287;SDS011;66345;42.694;23.346;2023-04-15T00:18:06;11.40;;;4.78;;
77287;SDS011;66345;42.694;23.346;2023-04-15T00:20:32;10.73;;;5.03;;
77287;SDS011;66345;42.694;23.346;2023-04-15T00:22:58;11.65;;;4.97;;
77287;SDS011;66345;42.694;23.346;2023-04-15T00:25:24;10.47;;;5.20;;
77287;SDS011;66345;42.694;23.346;2023-04-15T00:27:50;15.75;;;4.53;;
77287;SDS011;66345;42.694;23.346;2023-04-15T00:30:15;11.53;;;4.80;;
77287;SDS011;66345;42.694;23.346;2023-04-15T00:32:41;10.20;;;4.53;;
77287;SDS011;66345;42.694;23.346;2023-04-15T00:35:06;9.97;;;4.77;;
77287;SDS011;66345;42.694;23.346;2023-04-15T00:37:32;9.43;;;4.32;;
77287;SDS011;66345;42.694;23.346;2023-04-15T00:39:59;13.93;;;5.13;;
77287;SDS011;66345;42.694;23.346;2023-04-15T00:42:25;10.50;;;4.80;;
77287;SDS011;66345;42.694;23.346;2023-04-15T00:44:51;10.73;;;4.72;;
77287;SDS011;66345;42.694;23.346;2023-04-15T00:47:17;10.50;;;4.50;;
77287;SDS011;66345;42.694;23.346;2023-04-15T00:49:44;11.48;;;5.13;;
77287;SDS011;66345;42.694;23.346;2023-04-15T00:52:09;11.13;;;4.73;;
77287;SDS011;66345;42.694;23.346;2023-04-15T00:54:35;10.67;;;4.70;;
77287;SDS011;66345;42.694;23.346;2023-04-15T00:57:00;10.18;;;4.43;;
77287;SDS011;66345;42.694;23.346;2023-04-15T00:59:26;10.40;;;4.57;;
77287;SDS011;66345;42.694;23.346;2023-04-15T01:01:51;10.90;;;4.28;;
77287;SDS011;66345;42.694;23.346;2023-04-15T01:04:17;10.10;;;4.03;;
77287;SDS011;66345;42.694;23.346;2023-04-15T01:06:42;8.27;;;3.40;;
77287;SDS011;66345;42.694;23.346;2023-04-15T01:09:08;9.57;;;3.50;;
77287;SDS011;66345;42.694;23.346;2023-04-15T01:11:33;8.27;;;3.58;;
77287;SDS011;66345;42.694;23.346;2023-04-15T01:13:59;8.80;;;3.20;;
77287;SDS011;66345;42.694;23.346;2023-04-15T01:16:25;8.88;;;3.30;;
77287;SDS011;66345;42.694;23.346;2023-04-15T01:18:52;7.53;;;3.03;;
77287;SDS011;66345;42.694;23.346;2023-04-15T01:21:18;6.53;;;2.80;;
77287;SDS011;66345;42.694;23.346;2023-04-15T01:23:44;6.15;;;2.55;;
77287;SDS011;66345;42.694;23.346;2023-04-15T01:26:12;6.15;;;2.30;;
77287;SDS011;66345;42.694;23.346;2023-04-15T01:28:38;6.87;;;2.40;;
77287;SDS011;66345;42.694;23.346;2023-04-15T01:31:05;9.07;;;2.38;;
77287;SDS011;66345;42.694;23.346;2023-04-15T01:33:34;6.53;;;2.72;;
77287;SDS011;66345;42.694;23.346;2023-04-15T01:36:00;6.53;;;2.17;;
77287;SDS011;66345;42.694;23.346;2023-04-15T01:38:27;6.15;;;2.30;;
77287;SDS011;66345;42.694;23.346;2023-04-15T01:40:54;5.88;;;2.53;;
77287;SDS011;66345;42.694;23.346;2023-04-15T01:43:19;6.57;;;2.33;;
77287;SDS011;66345;42.694;23.346;2023-04-15T01:45:44;5.82;;;2.35;;
77287;SDS011;66345;42.694;23.346;2023-04-15T01:48:11;6.30;;;2.50;;
77287;SDS011;66345;42.694;23.346;2023-04-15T01:50:36;8.18;;;2.38;;
77287;SDS011;66345;42.694;23.346;2023-04-15T01:53:02;6.93;;;2.20;;
77287;SDS011;66345;42.694;23.346;2023-04-15T01:55:28;6.43;;;2.55;;
77287;SDS011;66345;42.694;23.346;2023-04-15T01:57:54;5.28;;;2.38;;
77287;SDS011;66345;42.694;23.346;2023-04-15T02:00:20;7.13;;;2.47;;
77287;SDS011;66345;42.694;23.346;2023-04-15T02:02:46;5.68;;;2.50;;
77287;SDS011;66345;42.694;23.346;2023-04-15T02:05:11;8.50;;;2.60;;
77287;SDS011;66345;42.694;23.346;2023-04-15T02:07:37;7.05;;;2.53;;
77287;SDS011;66345;42.694;23.346;2023-04-15T02:10:02;6.77;;;2.50;;
77287;SDS011;66345;42.694;23.346;2023-04-15T02:12:28;8.40;;;3.37;;
77287;SDS011;66345;42.694;23.346;2023-04-15T02:14:53;9.40;;;4.50;;
77287;SDS011;66345;42.694;23.346;2023-04-15T02:17:20;11.68;;;4.78;;
77287;SDS011;66345;42.694;23.346;2023-04-15T02:19:46;15.23;;;5.17;;
77287;SDS011;66345;42.694;23.346;2023-04-15T02:22:12;12.95;;;5.35;;
77287;SDS011;66345;42.694;23.346;2023-04-15T02:24:42;13.75;;;5.13;;
77287;SDS011;66345;42.694;23.346;2023-04-15T02:27:08;13.18;;;4.63;;
77287;SDS011;66345;42.694;23.346;2023-04-15T02:29:33;9.23;;;4.03;;
77287;SDS011;66345;42.694;23.346;2023-04-15T02:31:59;12.48;;;4.30;;
77287;SDS011;66345;42.694;23.346;2023-04-15T02:34:25;11.77;;;6.20;;
77287;SDS011;66345;42.694;23.346;2023-04-15T02:36:51;10.45;;;4.82;;
77287;SDS011;66345;42.694;23.346;2023-04-15T02:39:21;9.13;;;4.87;;
77287;SDS011;66345;42.694;23.346;2023-04-15T02:41:46;12.20;;;4.45;;
77287;SDS011;66345;42.694;23.346;2023-04-15T02:44:15;11.65;;;4.70;;
77287;SDS011;66345;42.694;23.346;2023-04-15T02:46:44;9.68;;;4.07;;
77287;SDS011;66345;42.694;23.346;2023-04-15T02:49:14;8.47;;;3.90;;
77287;SDS011;66345;42.694;23.346;2023-04-15T02:51:40;10.95;;;4.47;;
77287;SDS011;66345;42.694;23.346;2023-04-15T02:54:06;11.60;;;5.03;;
77287;SDS011;66345;42.694;23.346;2023-04-15T02:56:31;8.63;;;3.97;;
77287;SDS011;66345;42.694;23.346;2023-04-15T02:58:57;10.23;;;4.30;;
77287;SDS011;66345;42.694;23.346;2023-04-15T03:01:22;8.10;;;3.80;;
77287;SDS011;66345;42.694;23.346;2023-04-15T03:03:48;7.50;;;3.67;;
77287;SDS011;66345;42.694;23.346;2023-04-15T03:06:13;8.30;;;3.67;;
77287;SDS011;66345;42.694;23.346;2023-04-15T03:08:39;9.97;;;3.80;;
77287;SDS011;66345;42.694;23.346;2023-04-15T03:11:04;10.80;;;4.00;;
77287;SDS011;66345;42.694;23.346;2023-04-15T03:13:30;6.90;;;2.95;;
77287;SDS011;66345;42.694;23.346;2023-04-15T03:15:55;9.67;;;3.13;;
77287;SDS011;66345;42.694;23.346;2023-04-15T03:18:21;7.10;;;3.20;;
77287;SDS011;66345;42.694;23.346;2023-04-15T03:20:47;7.57;;;3.00;;
77287;SDS011;66345;42.694;23.346;2023-04-15T03:23:13;7.20;;;3.27;;
77287;SDS011;66345;42.694;23.346;2023-04-15T03:25:38;7.83;;;3.20;;
77287;SDS011;66345;42.694;23.346;2023-04-15T03:28:03;6.80;;;3.20;;
77287;SDS011;66345;42.694;23.346;2023-04-15T03:30:30;6.13;;;2.70;;
77287;SDS011;66345;42.694;23.346;2023-04-15T03:32:55;6.85;;;2.88;;
77287;SDS011;66345;42.694;23.346;2023-04-15T03:35:20;9.30;;;3.17;;
77287;SDS011;66345;42.694;23.346;2023-04-15T03:37:46;6.00;;;2.70;;
77287;SDS011;66345;42.694;23.346;2023-04-15T03:40:13;8.52;;;3.30;;
77287;SDS011;66345;42.694;23.346;2023-04-15T03:42:38;7.47;;;3.10;;
77287;SDS011;66345;42.694;23.346;2023-04-15T03:45:04;8.50;;;3.10;;
77287;SDS011;66345;42.694;23.346;2023-04-15T03:47:31;7.85;;;2.92;;
77287;SDS011;66345;42.694;23.346;2023-04-15T03:49:57;8.73;;;3.07;;
77287;SDS011;66345;42.694;23.346;2023-04-15T03:52:22;8.90;;;3.00;;
77287;SDS011;66345;42.694;23.346;2023-04-15T03:54:47;7.37;;;2.87;;
77287;SDS011;66345;42.694;23.346;2023-04-15T03:57:13;8.07;;;3.17;;
77287;SDS011;66345;42.694;23.346;2023-04-15T03:59:38;7.82;;;2.60;;
77287;SDS011;66345;42.694;23.346;2023-04-15T04:02:04;7.33;;;3.50;;
77287;SDS011;66345;42.694;23.346;2023-04-15T04:04:29;6.77;;;3.00;;
77287;SDS011;66345;42.694;23.346;2023-04-15T04:06:55;6.43;;;2.90;;
77287;SDS011;66345;42.694;23.346;2023-04-15T04:09:20;7.10;;;2.47;;
77287;SDS011;66345;42.694;23.346;2023-04-15T04:11:45;7.47;;;2.83;;
77287;SDS011;66345;42.694;23.346;2023-04-15T04:14:11;7.27;;;3.00;;
77287;SDS011;66345;42.694;23.346;2023-04-15T04:16:36;7.77;;;3.07;;
77287;SDS011;66345;42.694;23.346;2023-04-15T04:19:02;8.77;;;3.10;;
77287;SDS011;66345;42.694;23.346;2023-04-15T04:21:27;6.50;;;2.78;;
77287;SDS011;66345;42.694;23.346;2023-04-15T04:23:53;9.50;;;3.23;;
77287;SDS011;66345;42.694;23.346;2023-04-15T04:26:18;7.93;;;3.30;;
77287;SDS011;66345;42.694;23.346;2023-04-15T04:28:44;8.15;;;3.40;;
77287;SDS011;66345;42.694;23.346;2023-04-15T04:31:09;6.95;;;3.45;;
77287;SDS011;66345;42.694;23.346;2023-04-15T04:33:35;8.73;;;3.50;;
77287;SDS011;66345;42.694;23.346;2023-04-15T04:36:02;7.40;;;3.08;;
77287;SDS011;66345;42.694;23.346;2023-04-15T04:38:28;10.77;;;3.50;;
77287;SDS011;66345;42.694;23.346;2023-04-15T04:40:54;8.97;;;3.57;;
77287;SDS011;66345;42.694;23.346;2023-04-15T04:43:19;9.20;;;4.00;;
77287;SDS011;66345;42.694;23.346;2023-04-15T04:45:45;9.93;;;3.83;;
77287;SDS011;66345;42.694;23.346;2023-04-15T04:48:11;9.00;;;4.60;;
77287;SDS011;66345;42.694;23.346;2023-04-15T04:50:36;9.90;;;4.23;;
77287;SDS011;66345;42.694;23.346;2023-04-15T04:53:02;10.93;;;4.77;;
77287;SDS011;66345;42.694;23.346;2023-04-15T04:55:27;13.57;;;5.25;;
77287;SDS011;66345;42.694;23.346;2023-04-15T04:57:53;13.10;;;6.15;;
77287;SDS011;66345;42.694;23.346;2023-04-15T05:00:18;10.63;;;5.50;;
77287;SDS011;66345;42.694;23.346;2023-04-15T05:02:44;13.00;;;5.60;;
77287;SDS011;66345;42.694;23.346;2023-04-15T05:05:10;13.88;;;6.00;;
77287;SDS011;66345;42.694;23.346;2023-04-15T05:07:37;13.82;;;6.10;;
77287;SDS011;66345;42.694;23.346;2023-04-15T05:10:03;15.18;;;6.15;;
77287;SDS011;66345;42.694;23.346;2023-04-15T05:12:29;15.73;;;7.30;;
77287;SDS011;66345;42.694;23.346;2023-04-15T05:14:55;13.77;;;6.80;;
77287;SDS011;66345;42.694;23.346;2023-04-15T05:17:20;16.33;;;7.85;;
77287;SDS011;66345;42.694;23.346;2023-04-15T05:19:46;12.77;;;6.32;;
77287;SDS011;66345;42.694;23.346;2023-04-15T05:22:12;14.82;;;6.55;;
77287;SDS011;66345;42.694;23.346;2023-04-15T05:24:38;11.07;;;5.67;;
77287;SDS011;66345;42.694;23.346;2023-04-15T05:27:03;11.10;;;5.10;;
77287;SDS011;66345;42.694;23.346;2023-04-15T05:29:29;13.45;;;5.55;;
77287;SDS011;66345;42.694;23.346;2023-04-15T05:31:54;10.67;;;4.40;;
77287;SDS011;66345;42.694;23.346;2023-04-15T05:34:20;12.52;;;4.65;;
77287;SDS011;66345;42.694;23.346;2023-04-15T05:36:46;9.70;;;4.37;;
77287;SDS011;66345;42.694;23.346;2023-04-15T05:39:12;9.25;;;4.28;;
77287;SDS011;66345;42.694;23.346;2023-04-15T05:41:38;10.53;;;4.77;;
77287;SDS011;66345;42.694;23.346;2023-04-15T05:44:03;9.00;;;4.63;;
77287;SDS011;66345;42.694;23.346;2023-04-15T05:46:29;9.00;;;4.30;;
77287;SDS011;66345;42.694;23.346;2023-04-15T05:48:54;8.80;;;4.40;;
77287;SDS011;66345;42.694;23.346;2023-04-15T05:51:20;5.95;;;3.00;;
77287;SDS011;66345;42.694;23.346;2023-04-15T05:53:45;6.93;;;3.70;;
77287;SDS011;66345;42.694;23.346;2023-04-15T05:56:11;9.00;;;3.63;;
77287;SDS011;66345;42.694;23.346;2023-04-15T05:58:38;6.57;;;3.65;;
77287;SDS011;66345;42.694;23.346;2023-04-15T06:01:03;7.03;;;2.37;;
77287;SDS011;66345;42.694;23.346;2023-04-15T06:03:29;5.38;;;2.65;;
77287;SDS011;66345;42.694;23.346;2023-04-15T06:05:55;6.27;;;2.60;;
77287;SDS011;66345;42.694;23.346;2023-04-15T06:08:20;6.77;;;2.87;;
77287;SDS011;66345;42.694;23.346;2023-04-15T06:10:46;5.25;;;2.97;;
77287;SDS011;66345;42.694;23.346;2023-04-15T06:13:11;10.60;;;2.80;;
77287;SDS011;66345;42.694;23.346;2023-04-15T06:15:37;7.93;;;2.90;;
77287;SDS011;66345;42.694;23.346;2023-04-15T06:18:02;5.25;;;3.00;;
77287;SDS011;66345;42.694;23.346;2023-04-15T06:20:28;8.83;;;4.17;;
77287;SDS011;66345;42.694;23.346;2023-04-15T06:22:53;10.00;;;5.27;;
77287;SDS011;66345;42.694;23.346;2023-04-15T06:25:19;8.67;;;5.00;;
77287;SDS011;66345;42.694;23.346;2023-04-15T06:27:44;9.98;;;5.65;;
77287;SDS011;66345;42.694;23.346;2023-04-15T06:30:10;9.97;;;5.00;;
77287;SDS011;66345;42.694;23.346;2023-04-15T06:32:36;10.95;;;5.38;;
77287;SDS011;66345;42.694;23.346;2023-04-15T06:35:01;10.07;;;5.27;;
77287;SDS011;66345;42.694;23.346;2023-04-15T06:37:27;11.10;;;4.30;;
77287;SDS011;66345;42.694;23.346;2023-04-15T06:39:53;8.43;;;4.60;;
77287;SDS011;66345;42.694;23.346;2023-04-15T06:42:18;8.70;;;4.72;;
77287;SDS011;66345;42.694;23.346;2023-04-15T06:44:44;8.53;;;4.20;;
77287;SDS011;66345;42.694;23.346;2023-04-15T06:47:09;7.03;;;4.10;;
77287;SDS011;66345;42.694;23.346;2023-04-15T06:49:37;6.90;;;3.70;;
77287;SDS011;66345;42.694;23.346;2023-04-15T06:52:02;7.13;;;3.60;;
77287;SDS011;66345;42.694;23.346;2023-04-15T06:54:29;7.22;;;3.75;;
77287;SDS011;66345;42.694;23.346;2023-04-15T06:56:54;9.68;;;4.28;;
77287;SDS011;66345;42.694;23.346;2023-04-15T06:59:20;8.57;;;3.90;;
77287;SDS011;66345;42.694;23.346;2023-04-15T07:01:45;7.13;;;4.17;;
77287;SDS011;66345;42.694;23.346;2023-04-15T07:04:11;8.07;;;4.43;;
77287;SDS011;66345;42.694;23.346;2023-04-15T07:06:37;10.50;;;4.47;;
77287;SDS011;66345;42.694;23.346;2023-04-15T07:09:02;7.30;;;3.88;;
77287;SDS011;66345;42.694;23.346;2023-04-15T07:11:29;6.53;;;3.37;;
77287;SDS011;66345;42.694;23.346;2023-04-15T07:13:54;5.78;;;3.50;;
77287;SDS011;66345;42.694;23.346;2023-04-15T07:16:20;9.40;;;3.80;;
77287;SDS011;66345;42.694;23.346;2023-04-15T07:18:45;7.27;;;3.20;;
77287;SDS011;66345;42.694;23.346;2023-04-15T07:21:11;8.30;;;3.70;;
77287;SDS011;66345;42.694;23.346;2023-04-15T07:23:36;7.97;;;3.70;;
77287;SDS011;66345;42.694;23.346;2023-04-15T07:26:02;7.03;;;3.63;;
77287;SDS011;66345;42.694;23.346;2023-04-15T07:28:28;10.02;;;3.65;;
77287;SDS011;66345;42.694;23.346;2023-04-15T07:30:54;6.97;;;3.50;;
77287;SDS011;66345;42.694;23.346;2023-04-15T07:33:21;8.13;;;3.72;;
77287;SDS011;66345;42.694;23.346;2023-04-15T07:35:46;7.17;;;3.40;;
77287;SDS011;66345;42.694;23.346;2023-04-15T07:38:12;7.95;;;3.35;;
77287;SDS011;66345;42.694;23.346;2023-04-15T07:40:38;6.30;;;3.67;;
77287;SDS011;66345;42.694;23.346;2023-04-15T07:43:04;7.60;;;3.83;;
77287;SDS011;66345;42.694;23.346;2023-04-15T07:45:30;7.47;;;4.10;;
77287;SDS011;66345;42.694;23.346;2023-04-15T07:47:56;7.60;;;4.00;;
77287;SDS011;66345;42.694;23.346;2023-04-15T07:50:22;6.82;;;3.50;;
77287;SDS011;66345;42.694;23.346;2023-04-15T07:52:48;6.22;;;3.65;;
77287;SDS011;66345;42.694;23.346;2023-04-15T07:55:14;8.35;;;3.95;;
77287;SDS011;66345;42.694;23.346;2023-04-15T07:57:44;6.90;;;3.63;;
77287;SDS011;66345;42.694;23.346;2023-04-15T08:00:11;6.20;;;3.63;;
77287;SDS011;66345;42.694;23.346;2023-04-15T08:02:37;7.32;;;3.88;;
77287;SDS011;66345;42.694;23.346;2023-04-15T08:05:02;7.37;;;3.50;;
77287;SDS011;66345;42.694;23.346;2023-04-15T08:07:28;6.63;;;3.90;;
77287;SDS011;66345;42.694;23.346;2023-04-15T08:09:54;7.40;;;3.80;;
77287;SDS011;66345;42.694;23.346;2023-04-15T08:12:20;7.47;;;3.87;;
77287;SDS011;66345;42.694;23.346;2023-04-15T08:14:46;7.63;;;3.60;;
77287;SDS011;66345;42.694;23.346;2023-04-15T08:17:11;7.17;;;3.70;;
77287;SDS011;66345;42.694;23.346;2023-04-15T08:19:37;5.93;;;3.60;;
77287;SDS011;66345;42.694;23.346;2023-04-15T08:22:02;7.93;;;4.13;;
77287;SDS011;66345;42.694;23.346;2023-04-15T08:24:29;7.85;;;3.38;;
77287;SDS011;66345;42.694;23.346;2023-04-15T08:26:55;6.63;;;3.10;;
77287;SDS011;66345;42.694;23.346;2023-04-15T08:29:21;6.18;;;2.83;;
77287;SDS011;66345;42.694;23.346;2023-04-15T08:31:47;8.03;;;3.93;;
77287;SDS011;66345;42.694;23.346;2023-04-15T08:34:12;7.38;;;3.88;;
77287;SDS011;66345;42.694;23.346;2023-04-15T08:36:39;5.93;;;3.90;;
77287;SDS011;66345;42.694;23.346;2023-04-15T08:39:05;8.23;;;3.80;;
77287;SDS011;66345;42.694;23.346;2023-04-15T08:41:44;8.18;;;4.65;;
77287;SDS011;66345;42.694;23.346;2023-04-15T08:44:14;6.70;;;3.60;;
77287;SDS011;66345;42.694;23.346;2023-04-15T08:46:40;7.73;;;3.60;;
77287;SDS011;66345;42.694;23.346;2023-04-15T08:49:09;7.03;;;3.67;;
77287;SDS011;66345;42.694;23.346;2023-04-15T08:51:39;7.05;;;3.30;;
77287;SDS011;66345;42.694;23.346;2023-04-15T08:54:06;6.20;;;3.03;;
77287;SDS011;66345;42.694;23.346;2023-04-15T08:56:35;7.17;;;3.33;;
77287;SDS011;66345;42.694;23.346;2023-04-15T08:59:01;5.53;;;3.15;;
77287;SDS011;66345;42.694;23.346;2023-04-15T09:01:27;5.25;;;3.20;;
77287;SDS011;66345;42.694;23.346;2023-04-15T09:03:53;7.03;;;3.28;;
77287;SDS011;66345;42.694;23.346;2023-04-15T09:06:19;8.97;;;2.87;;
77287;SDS011;66345;42.694;23.346;2023-04-15T09:08:45;5.35;;;2.90;;
77287;SDS011;66345;42.694;23.346;2023-04-15T09:11:12;5.83;;;2.27;;
77287;SDS011;66345;42.694;23.346;2023-04-15T09:13:37;8.25;;;2.67;;
77287;SDS011;66345;42.694;23.346;2023-04-15T09:16:06;6.20;;;2.73;;
77287;SDS011;66345;42.694;23.346;2023-04-15T09:18:32;5.60;;;2.40;;
77287;SDS011;66345;42.694;23.346;2023-04-15T09:21:09;4.47;;;2.08;;
77287;SDS011;66345;42.694;23.346;2023-04-15T09:23:38;5.60;;;1.80;;
77287;SDS011;66345;42.694;23.346;2023-04-15T09:26:05;5.38;;;2.03;;
77287;SDS011;66345;42.694;23.346;2023-04-15T09:28:31;6.00;;;1.80;;
77287;SDS011;66345;42.694;23.346;2023-04-15T09:31:00;3.78;;;1.50;;
77287;SDS011;66345;42.694;23.346;2023-04-15T09:33:27;5.57;;;2.00;;
77287;SDS011;66345;42.694;23.346;2023-04-15T09:35:57;4.63;;;1.35;;
77287;SDS011;66345;42.694;23.346;2023-04-15T09:38:24;4.35;;;1.60;;
77287;SDS011;66345;42.694;23.346;2023-04-15T09:40:49;6.23;;;1.70;;
77287;SDS011;66345;42.694;23.346;2023-04-15T09:43:15;4.63;;;1.77;;
77287;SDS011;66345;42.694;23.346;2023-04-15T09:45:50;5.03;;;1.60;;
77287;SDS011;66345;42.694;23.346;2023-04-15T09:48:23;4.63;;;1.80;;
77287;SDS011;66345;42.694;23.346;2023-04-15T09:50:53;3.45;;;1.50;;
77287;SDS011;66345;42.694;23.346;2023-04-15T09:53:22;4.53;;;1.63;;
77287;SDS011;66345;42.694;23.346;2023-04-15T09:55:53;5.22;;;2.00;;
77287;SDS011;66345;42.694;23.346;2023-04-15T09:58:25;5.20;;;1.65;;
77287;SDS011;66345;42.694;23.346;2023-04-15T10:00:52;4.70;;;1.40;;
77287;SDS011;66345;42.694;23.346;2023-04-15T10:03:23;3.85;;;1.33;;
77287;SDS011;66345;42.694;23.346;2023-04-15T10:05:55;5.57;;;1.50;;
77287;SDS011;66345;42.694;23.346;2023-04-15T10:08:22;5.65;;;1.50;;
77287;SDS011;66345;42.694;23.346;2023-04-15T10:10:50;4.32;;;1.40;;
77287;SDS011;66345;42.694;23.346;2023-04-15T10:13:20;4.23;;;1.20;;
77287;SDS011;66345;42.694;23.346;2023-04-15T10:15:59;5.93;;;1.40;;
77287;SDS011;66345;42.694;23.346;2023-04-15T10:18:30;4.35;;;1.73;;
77287;SDS011;66345;42.694;23.346;2023-04-15T10:21:00;5.30;;;1.75;;
77287;SDS011;66345;42.694;23.346;2023-04-15T10:23:26;4.85;;;1.48;;
77287;SDS011;66345;42.694;23.346;2023-04-15T10:25:52;4.10;;;1.20;;
77287;SDS011;66345;42.694;23.346;2023-04-15T10:28:18;4.25;;;1.35;;
77287;SDS011;66345;42.694;23.346;2023-04-15T10:30:46;4.82;;;1.52;;
77287;SDS011;66345;42.694;23.346;2023-04-15T10:33:14;4.53;;;1.30;;
77287;SDS011;66345;42.694;23.346;2023-04-15T10:35:44;3.35;;;1.05;;
77287;SDS011;66345;42.694;23.346;2023-04-15T10:41:10;4.50;;;2.05;;
77287;SDS011;66345;42.694;23.346;2023-04-15T10:43:53;3.85;;;1.17;;
77287;SDS011;66345;42.694;23.346;2023-04-15T10:46:21;4.17;;;1.50;;
77287;SDS011;66345;42.694;23.346;2023-04-15T10:48:50;3.95;;;1.40;;
77287;SDS011;66345;42.694;23.346;2023-04-15T10:51:25;3.25;;;1.08;;
77287;SDS011;66345;42.694;23.346;2023-04-15T10:53:54;3.60;;;1.10;;
77287;SDS011;66345;42.694;23.346;2023-04-15T10:56:20;2.67;;;1.00;;
77287;SDS011;66345;42.694;23.346;2023-04-15T10:58:47;3.70;;;1.00;;
77287;SDS011;66345;42.694;23.346;2023-04-15T11:01:12;4.03;;;0.95;;
77287;SDS011;66345;42.694;23.346;2023-04-15T11:03:39;4.37;;;1.20;;
77287;SDS011;66345;42.694;23.346;2023-04-15T11:06:07;2.90;;;0.73;;
77287;SDS011;66345;42.694;23.346;2023-04-15T11:08:52;3.80;;;1.30;;
77287;SDS011;66345;42.694;23.346;2023-04-15T11:11:20;3.63;;;1.10;;
77287;SDS011;66345;42.694;23.346;2023-04-15T11:13:46;5.18;;;1.33;;
77287;SDS011;66345;42.694;23.346;2023-04-15T11:16:13;4.68;;;1.20;;
77287;SDS011;66345;42.694;23.346;2023-04-15T11:18:39;5.37;;;1.03;;
77287;SDS011;66345;42.694;23.346;2023-04-15T11:21:05;4.63;;;0.93;;
77287;SDS011;66345;42.694;23.346;2023-04-15T11:23:41;4.90;;;0.90;;
77287;SDS011;66345;42.694;23.346;2023-04-15T11:26:08;3.40;;;0.98;;
77287;SDS011;66345;42.694;23.346;2023-04-15T11:28:38;4.65;;;0.95;;
77287;SDS011;66345;42.694;23.346;2023-04-15T11:31:06;3.00;;;0.70;;
77287;SDS011;66345;42.694;23.346;2023-04-15T11:33:34;5.45;;;1.10;;
77287;SDS011;66345;42.694;23.346;2023-04-15T11:36:00;3.55;;;0.80;;
77287;SDS011;66345;42.694;23.346;2023-04-15T11:38:27;4.63;;;1.20;;
77287;SDS011;66345;42.694;23.346;2023-04-15T11:40:53;5.25;;;1.08;;
77287;SDS011;66345;42.694;23.346;2023-04-15T11:43:19;3.47;;;1.00;;
77287;SDS011;66345;42.694;23.346;2023-04-15T11:45:56;4.45;;;1.05;;
77287;SDS011;66345;42.694;23.346;2023-04-15T11:48:24;4.05;;;1.17;;
77287;SDS011;66345;42.694;23.346;2023-04-15T11:50:54;4.47;;;0.85;;
77287;SDS011;66345;42.694;23.346;2023-04-15T11:53:24;3.00;;;0.90;;
77287;SDS011;66345;42.694;23.346;2023-04-15T11:56:05;3.15;;;0.90;;
77287;SDS011;66345;42.694;23.346;2023-04-15T11:58:33;3.50;;;1.20;;
77287;SDS011;66345;42.694;23.346;2023-04-15T12:01:03;4.45;;;0.90;;
77287;SDS011;66345;42.694;23.346;2023-04-15T12:03:30;2.33;;;0.50;;
77287;SDS011;66345;42.694;23.346;2023-04-15T12:06:15;1.83;;;0.40;;
77287;SDS011;66345;42.694;23.346;2023-04-15T12:14:25;2.78;;;0.60;;
77287;SDS011;66345;42.694;23.346;2023-04-15T12:17:01;3.03;;;0.70;;
77287;SDS011;66345;42.694;23.346;2023-04-15T12:19:35;4.60;;;0.80;;
77287;SDS011;66345;42.694;23.346;2023-04-15T12:22:12;4.07;;;0.90;;
77287;SDS011;66345;42.694;23.346;2023-04-15T12:24:41;2.30;;;0.50;;
77287;SDS011;66345;42.694;23.346;2023-04-15T12:27:10;5.45;;;0.80;;
77287;SDS011;66345;42.694;23.346;2023-04-15T12:29:38;5.30;;;0.77;;
77287;SDS011;66345;42.694;23.346;2023-04-15T12:32:16;2.97;;;0.60;;
77287;SDS011;66345;42.694;23.346;2023-04-15T12:34:51;4.97;;;1.10;;
77287;SDS011;66345;42.694;23.346;2023-04-15T12:37:18;3.53;;;0.82;;
77287;SDS011;66345;42.694;23.346;2023-04-15T12:39:46;2.73;;;0.60;;
77287;SDS011;66345;42.694;23.346;2023-04-15T12:42:13;2.38;;;0.65;;
77287;SDS011;66345;42.694;23.346;2023-04-15T12:44:40;3.55;;;0.90;;
77287;SDS011;66345;42.694;23.346;2023-04-15T12:47:05;4.03;;;0.80;;
77287;SDS011;66345;42.694;23.346;2023-04-15T12:49:31;3.53;;;0.50;;
77287;SDS011;66345;42.694;23.346;2023-04-15T12:51:57;2.30;;;0.50;;
77287;SDS011;66345;42.694;23.346;2023-04-15T12:54:24;2.35;;;0.60;;
77287;SDS011;66345;42.694;23.346;2023-04-15T12:56:51;3.38;;;0.70;;
77287;SDS011;66345;42.694;23.346;2023-04-15T12:59:17;3.10;;;0.57;;
77287;SDS011;66345;42.694;23.346;2023-04-15T13:01:43;3.40;;;0.60;;
77287;SDS011;66345;42.694;23.346;2023-04-15T13:04:09;3.10;;;0.52;;
77287;SDS011;66345;42.694;23.346;2023-04-15T13:06:34;3.13;;;0.70;;
77287;SDS011;66345;42.694;23.346;2023-04-15T13:09:01;2.63;;;0.70;;
77287;SDS011;66345;42.694;23.346;2023-04-15T13:11:27;3.42;;;0.73;;
77287;SDS011;66345;42.694;23.346;2023-04-15T13:13:55;2.58;;;0.57;;
77287;SDS011;66345;42.694;23.346;2023-04-15T13:16:27;2.78;;;0.55;;
77287;SDS011;66345;42.694;23.346;2023-04-15T13:18:53;3.00;;;0.50;;
77287;SDS011;66345;42.694;23.346;2023-04-15T13:21:19;2.80;;;0.50;;
77287;SDS011;66345;42.694;23.346;2023-04-15T13:23:44;2.53;;;0.40;;
77287;SDS011;66345;42.694;23.346;2023-04-15T13:26:10;2.47;;;0.50;;
77287;SDS011;66345;42.694;23.346;2023-04-15T13:28:36;3.13;;;0.43;;
77287;SDS011;66345;42.694;23.346;2023-04-15T13:31:02;2.47;;;0.50;;
77287;SDS011;66345;42.694;23.346;2023-04-15T13:33:27;2.30;;;0.50;;
77287;SDS011;66345;42.694;23.346;2023-04-15T13:35:53;2.00;;;0.50;;
77287;SDS011;66345;42.694;23.346;2023-04-15T13:38:18;1.70;;;0.40;;
77287;SDS011;66345;42.694;23.346;2023-04-15T13:40:44;3.73;;;0.83;;
77287;SDS011;66345;42.694;23.346;2023-04-15T13:43:10;2.92;;;0.80;;
77287;SDS011;66345;42.694;23.346;2023-04-15T13:45:36;3.20;;;0.70;;
77287;SDS011;66345;42.694;23.346;2023-04-15T13:48:01;3.28;;;0.70;;
77287;SDS011;66345;42.694;23.346;2023-04-15T13:50:28;4.22;;;0.68;;
77287;SDS011;66345;42.694;23.346;2023-04-15T13:52:54;3.08;;;0.88;;
77287;SDS011;66345;42.694;23.346;2023-04-15T13:55:19;4.00;;;0.80;;
77287;SDS011;66345;42.694;23.346;2023-04-15T13:57:45;2.83;;;0.60;;
77287;SDS011;66345;42.694;23.346;2023-04-15T14:00:11;3.17;;;0.70;;
77287;SDS011;66345;42.694;23.346;2023-04-15T14:02:36;2.45;;;0.43;;
77287;SDS011;66345;42.694;23.346;2023-04-15T14:05:02;2.73;;;0.50;;
77287;SDS011;66345;42.694;23.346;2023-04-15T14:07:28;3.60;;;0.73;;
77287;SDS011;66345;42.694;23.346;2023-04-15T14:09:54;3.80;;;0.65;;
77287;SDS011;66345;42.694;23.346;2023-04-15T14:12:20;3.53;;;0.80;;
77287;SDS011;66345;42.694;23.346;2023-04-15T14:14:46;3.42;;;0.60;;
77287;SDS011;66345;42.694;23.346;2023-04-15T14:17:11;3.10;;;0.60;;
77287;SDS011;66345;42.694;23.346;2023-04-15T14:19:36;3.20;;;0.70;;
77287;SDS011;66345;42.694;23.346;2023-04-15T14:22:02;3.13;;;0.68;;
77287;SDS011;66345;42.694;23.346;2023-04-15T14:24:27;3.17;;;0.73;;
77287;SDS011;66345;42.694;23.346;2023-04-15T14:26:53;3.17;;;0.60;;
77287;SDS011;66345;42.694;23.346;2023-04-15T14:29:19;3.33;;;0.53;;
77287;SDS011;66345;42.694;23.346;2023-04-15T14:31:44;2.55;;;0.60;;
77287;SDS011;66345;42.694;23.346;2023-04-15T14:34:10;2.83;;;0.60;;
77287;SDS011;66345;42.694;23.346;2023-04-15T14:36:35;2.60;;;0.50;;
77287;SDS011;66345;42.694;23.346;2023-04-15T14:39:01;2.90;;;0.60;;